Time;durP1;ratioP1;P1;durP2;ratioP2;P2;SDS_P1;SDS_P2;PMS_P1;PMS_P2;Temp;Humidity;BMP_temperature;BMP_pressure;BME280_temperature;BME280_humidity;BME280_pressure;Samples;Min_cycle;Max_cycle;Signal;HPM_P1;HPM_P2
2022/06/06 00:00:52;;;;;;;;;;;16.60;99.90;;;;;;5035577;28;37222;-51
2022/06/06 00:03:19;;;;;;;;;;;16.50;99.90;;;;;;5036111;28;35461;-52
2022/06/06 00:05:48;;;;;;;;;;;16.50;99.90;;;;;;5035009;28;37758;-52
2022/06/06 00:08:15;;;;;;;;;;;16.50;99.90;;;;;;5035115;28;38782;-51
2022/06/06 00:10:44;;;;;;;;;;;16.50;99.90;;;;;;5034977;28;38701;-51
2022/06/06 00:13:14;;;;;;;;;;;16.50;99.90;;;;;;5035263;28;37019;-50
2022/06/06 00:15:41;;;;;;;;;;;16.50;99.90;;;;;;5035208;28;38722;-49
2022/06/06 00:18:08;;;;;;;;;;;16.50;99.90;;;;;;5019214;28;38072;-51
2022/06/06 00:20:35;;;;;;;;;;;16.50;99.90;;;;;;5031976;28;36100;-52
2022/06/06 00:23:02;;;;;;;;;;;16.50;99.90;;;;;;5019141;28;36434;-52
2022/06/06 00:25:30;;;;;;;;;;;16.50;99.90;;;;;;5031230;28;37612;-52
2022/06/06 00:27:57;;;;;;;;;;;16.50;99.90;;;;;;5021246;28;39434;-52
2022/06/06 00:30:25;;;;;;;;;;;16.50;99.90;;;;;;5026118;28;38638;-52
2022/06/06 00:35:37;;;;;;;;;;;16.50;99.90;;;;;;5033944;28;38944;-48
2022/06/06 00:38:04;;;;;;;;;;;16.50;99.90;;;;;;5034886;28;37831;-49
2022/06/06 00:40:31;;;;;;;;;;;16.50;99.90;;;;;;5034740;28;37428;-49
2022/06/06 00:42:58;;;;;;;;;;;16.40;99.90;;;;;;5034490;28;36320;-52
2022/06/06 00:45:29;;;;;;;;;;;16.50;99.90;;;;;;5034569;28;37516;-48
2022/06/06 00:48:00;;;;;;;;;;;16.50;99.90;;;;;;5034675;28;37866;-49
2022/06/06 00:50:31;;;;;;;;;;;16.50;99.90;;;;;;5034798;28;38859;-50
2022/06/06 00:52:59;;;;;;;;;;;16.50;99.90;;;;;;5035125;28;36127;-50
2022/06/06 00:55:29;;;;;;;;;;;16.40;99.90;;;;;;5033823;28;38409;-52
2022/06/06 00:57:57;;;;;;;;;;;16.50;99.90;;;;;;5034463;28;37748;-52
2022/06/06 01:00:25;;;;;;;;;;;16.50;99.90;;;;;;5034538;28;37762;-51
2022/06/06 01:02:54;;;;;;;;;;;16.50;99.90;;;;;;5032740;28;36083;-52
2022/06/06 01:05:22;;;;;;;;;;;16.40;99.90;;;;;;5033936;28;38308;-49
2022/06/06 01:07:49;;;;;;;;;;;16.40;99.90;;;;;;5034640;28;38223;-49
2022/06/06 01:10:17;;;;;;;;;;;16.50;99.90;;;;;;5033629;28;37534;-50
2022/06/06 01:12:44;;;;;;;;;;;16.40;99.90;;;;;;5034088;28;37000;-49
2022/06/06 01:15:14;;;;;;;;;;;16.40;99.90;;;;;;5034463;28;37675;-52
2022/06/06 01:17:44;;;;;;;;;;;16.40;99.90;;;;;;5033867;28;38568;-50
2022/06/06 01:20:19;;;;;;;;;;;16.40;99.90;;;;;;5034269;28;36845;-50
2022/06/06 01:22:56;;;;;;;;;;;16.30;99.90;;;;;;5033807;28;36631;-52
2022/06/06 01:25:42;;;;;;;;;;;16.40;99.90;;;;;;5034280;28;37371;-50
2022/06/06 01:28:20;;;;;;;;;;;16.30;99.90;;;;;;5026509;28;38795;-51
2022/06/06 01:30:51;;;;;;;;;;;16.20;99.90;;;;;;5027656;28;37897;-51
2022/06/06 01:33:18;;;;;;;;;;;16.20;99.90;;;;;;5033978;28;34929;-49
2022/06/06 01:35:47;;;;;;;;;;;16.10;99.90;;;;;;5033609;28;40322;-50
2022/06/06 01:38:16;;;;;;;;;;;16.10;99.90;;;;;;5026129;28;37879;-50
2022/06/06 01:40:46;;;;;;;;;;;16.10;99.90;;;;;;5033477;28;37977;-50
2022/06/06 01:43:15;;;;;;;;;;;16.10;99.90;;;;;;5018118;28;37644;-49
2022/06/06 01:45:46;;;;;;;;;;;16.00;99.90;;;;;;5030809;28;38428;-51
2022/06/06 01:48:15;;;;;;;;;;;16.00;99.90;;;;;;5021180;28;36637;-48
2022/06/06 01:50:43;;;;;;;;;;;16.00;99.90;;;;;;5033505;28;37403;-51
2022/06/06 01:53:12;;;;;;;;;;;16.00;99.90;;;;;;5026839;28;37101;-50
2022/06/06 01:55:42;;;;;;;;;;;15.90;99.90;;;;;;5033886;28;37724;-52
2022/06/06 01:58:11;;;;;;;;;;;15.90;99.90;;;;;;5033873;28;38197;-48
2022/06/06 02:00:39;;;;;;;;;;;15.90;99.90;;;;;;5033449;28;36976;-50
2022/06/06 02:03:09;;;;;;;;;;;15.80;99.90;;;;;;5033184;28;35933;-52
2022/06/06 02:05:36;;;;;;;;;;;15.80;99.90;;;;;;5033371;28;39201;-48
2022/06/06 02:08:03;;;;;;;;;;;15.80;99.90;;;;;;5033403;28;37797;-52
2022/06/06 02:10:30;;;;;;;;;;;15.80;99.90;;;;;;5032938;28;37501;-52
2022/06/06 02:12:57;;;;;;;;;;;15.80;99.90;;;;;;5033035;28;37816;-53
2022/06/06 02:15:25;;;;;;;;;;;15.70;99.90;;;;;;5032940;28;38043;-51
2022/06/06 02:17:52;;;;;;;;;;;15.70;99.90;;;;;;5033457;28;38261;-52
2022/06/06 02:20:24;;;;;;;;;;;15.70;99.90;;;;;;5033656;28;29086;-50
2022/06/06 02:22:51;;;;;;;;;;;15.60;99.90;;;;;;5018378;28;39198;-53
2022/06/06 02:25:18;;;;;;;;;;;15.60;99.90;;;;;;5028791;28;38351;-51
2022/06/06 02:27:45;;;;;;;;;;;15.60;99.90;;;;;;5033284;28;36738;-52
2022/06/06 02:30:14;;;;;;;;;;;15.60;99.90;;;;;;5033743;28;37773;-50
2022/06/06 02:32:42;;;;;;;;;;;15.60;99.90;;;;;;5018241;28;36516;-52
2022/06/06 02:35:10;;;;;;;;;;;15.50;99.90;;;;;;5030196;28;38499;-51
2022/06/06 02:37:38;;;;;;;;;;;15.50;99.90;;;;;;5029718;28;37680;-51
2022/06/06 02:40:06;;;;;;;;;;;15.50;99.90;;;;;;5026760;28;37042;-48
2022/06/06 02:42:33;;;;;;;;;;;15.50;99.90;;;;;;5021395;28;35491;-52
2022/06/06 02:45:00;;;;;;;;;;;15.40;99.90;;;;;;5032312;28;38526;-49
2022/06/06 02:47:29;;;;;;;;;;;15.40;99.90;;;;;;5021197;28;37941;-52
2022/06/06 02:49:56;;;;;;;;;;;15.40;99.90;;;;;;5025377;28;37264;-52
2022/06/06 02:52:23;;;;;;;;;;;15.40;99.90;;;;;;5032650;28;37710;-52
2022/06/06 02:54:52;;;;;;;;;;;15.40;99.90;;;;;;5032373;28;37950;-52
2022/06/06 02:57:19;;;;;;;;;;;15.40;99.90;;;;;;5032708;28;38600;-50
2022/06/06 02:59:48;;;;;;;;;;;15.40;99.90;;;;;;5032430;28;36793;-51
2022/06/06 03:02:15;;;;;;;;;;;15.40;99.90;;;;;;5033169;28;35107;-49
2022/06/06 03:04:43;;;;;;;;;;;15.40;99.90;;;;;;5032902;28;37852;-51
2022/06/06 03:07:14;;;;;;;;;;;15.40;99.90;;;;;;5032862;28;37449;-50
2022/06/06 03:09:45;;;;;;;;;;;15.40;99.90;;;;;;5032123;28;37337;-50
2022/06/06 03:12:24;;;;;;;;;;;15.40;99.90;;;;;;5032627;28;36922;-53
2022/06/06 03:15:09;;;;;;;;;;;15.40;99.90;;;;;;5031761;28;38428;-49
2022/06/06 03:23:27;;;;;;;;;;;15.40;99.90;;;;;;5019405;28;37019;-50
2022/06/06 03:25:59;;;;;;;;;;;15.40;99.90;;;;;;5032380;28;38393;-50
2022/06/06 03:28:29;;;;;;;;;;;15.40;99.90;;;;;;5032103;28;38429;-51
2022/06/06 03:31:02;;;;;;;;;;;15.40;99.90;;;;;;5032457;28;35918;-51
2022/06/06 03:33:33;;;;;;;;;;;15.40;99.90;;;;;;5033242;28;37185;-53
2022/06/06 03:36:03;;;;;;;;;;;15.40;99.90;;;;;;5035905;28;37716;-53
2022/06/06 03:38:35;;;;;;;;;;;15.40;99.90;;;;;;5036030;28;39063;-48
2022/06/06 03:41:06;;;;;;;;;;;15.40;99.90;;;;;;5035967;28;35952;-51
2022/06/06 03:43:41;;;;;;;;;;;15.40;99.90;;;;;;5036371;28;36569;-50
2022/06/06 03:46:16;;;;;;;;;;;15.40;99.90;;;;;;5035665;28;37576;-52
2022/06/06 03:48:47;;;;;;;;;;;15.40;99.90;;;;;;5035493;28;37708;-53
2022/06/06 03:51:20;;;;;;;;;;;15.40;99.90;;;;;;5035053;28;35801;-52
2022/06/06 03:53:51;;;;;;;;;;;15.40;99.90;;;;;;5035939;28;37598;-52
2022/06/06 03:56:24;;;;;;;;;;;15.40;99.90;;;;;;5034993;28;39094;-52
2022/06/06 03:58:54;;;;;;;;;;;15.40;99.90;;;;;;5035931;28;37775;-53
2022/06/06 04:01:22;;;;;;;;;;;15.40;99.90;;;;;;5035441;28;37796;-53
2022/06/06 04:03:50;;;;;;;;;;;15.40;99.90;;;;;;5035774;28;36933;-52
2022/06/06 04:06:17;;;;;;;;;;;15.30;99.90;;;;;;5034711;28;37109;-53
2022/06/06 04:08:44;;;;;;;;;;;15.30;99.90;;;;;;5035108;28;39346;-54
2022/06/06 04:11:24;;;;;;;;;;;15.40;99.90;;;;;;5035378;28;36024;-52
2022/06/06 04:13:57;;;;;;;;;;;15.40;99.90;;;;;;5035313;28;38178;-53
2022/06/06 04:16:26;;;;;;;;;;;15.40;99.90;;;;;;5034526;28;37516;-51
2022/06/06 04:18:58;;;;;;;;;;;15.40;99.90;;;;;;5034584;28;38242;-54
2022/06/06 04:21:32;;;;;;;;;;;15.40;99.90;;;;;;5035739;28;38150;-50
2022/06/06 04:24:07;;;;;;;;;;;15.40;99.90;;;;;;5035292;28;36320;-49
2022/06/06 04:26:42;;;;;;;;;;;15.40;99.90;;;;;;5035018;28;37883;-51
2022/06/06 04:29:13;;;;;;;;;;;15.40;99.90;;;;;;5034851;28;38807;-49
2022/06/06 04:31:44;;;;;;;;;;;15.40;99.90;;;;;;5034809;28;37376;-52
2022/06/06 04:34:15;;;;;;;;;;;15.40;99.90;;;;;;5035367;28;37627;-51
2022/06/06 04:36:46;;;;;;;;;;;15.40;99.90;;;;;;5035151;28;36448;-52
2022/06/06 04:39:15;;;;;;;;;;;15.40;99.90;;;;;;5035425;28;37177;-53
2022/06/06 04:41:44;;;;;;;;;;;15.40;99.90;;;;;;5035108;28;37880;-50
2022/06/06 04:44:17;;;;;;;;;;;15.40;99.90;;;;;;5034957;28;37415;-50
2022/06/06 04:46:47;;;;;;;;;;;15.40;99.90;;;;;;5034104;28;37558;-50
2022/06/06 04:49:15;;;;;;;;;;;15.40;99.90;;;;;;5034195;28;38461;-49
2022/06/06 04:51:43;;;;;;;;;;;15.40;99.90;;;;;;5034079;28;37433;-53
2022/06/06 04:54:14;;;;;;;;;;;15.40;99.90;;;;;;5034754;28;37166;-52
2022/06/06 04:56:43;;;;;;;;;;;15.40;99.90;;;;;;5034991;28;37040;-51
2022/06/06 04:59:11;;;;;;;;;;;15.40;99.90;;;;;;5034029;28;36677;-50
2022/06/06 05:01:40;;;;;;;;;;;15.40;99.90;;;;;;5035091;28;37099;-49
2022/06/06 05:04:07;;;;;;;;;;;15.40;99.90;;;;;;5035157;28;36201;-50
2022/06/06 05:06:56;;;;;;;;;;;15.40;99.90;;;;;;5034240;28;38313;-50
2022/06/06 05:09:39;;;;;;;;;;;15.40;99.90;;;;;;5034927;28;37841;-52
2022/06/06 05:12:13;;;;;;;;;;;15.40;99.90;;;;;;5020222;28;37898;-52
2022/06/06 05:14:49;;;;;;;;;;;15.40;99.90;;;;;;5034178;28;35998;-51
2022/06/06 05:17:31;;;;;;;;;;;15.30;99.90;;;;;;5029833;28;38021;-51
2022/06/06 05:20:07;;;;;;;;;;;15.30;99.90;;;;;;5007697;28;36870;-50
2022/06/06 05:22:51;;;;;;;;;;;15.30;99.90;;;;;;5027667;28;37989;-51
2022/06/06 05:25:26;;;;;;;;;;;15.30;99.90;;;;;;5033251;28;36996;-50
2022/06/06 05:28:02;;;;;;;;;;;15.30;99.90;;;;;;5027656;28;38347;-52
2022/06/06 05:30:32;;;;;;;;;;;15.20;99.90;;;;;;5034389;28;37574;-49
2022/06/06 05:33:04;;;;;;;;;;;15.20;99.90;;;;;;5028009;28;37088;-50
2022/06/06 05:35:43;;;;;;;;;;;15.20;99.90;;;;;;5033238;28;36249;-48
2022/06/06 05:38:16;;;;;;;;;;;15.20;99.90;;;;;;5034544;28;39247;-52
2022/06/06 05:40:47;;;;;;;;;;;15.20;99.90;;;;;;5033597;28;37635;-52
2022/06/06 05:43:20;;;;;;;;;;;15.20;99.90;;;;;;5034175;28;38296;-50
2022/06/06 05:45:52;;;;;;;;;;;15.20;99.90;;;;;;5033287;28;34556;-51
2022/06/06 05:48:28;;;;;;;;;;;15.20;99.90;;;;;;5033844;28;38631;-52
2022/06/06 05:51:02;;;;;;;;;;;15.20;99.90;;;;;;5033122;28;39185;-51
2022/06/06 05:53:44;;;;;;;;;;;15.20;99.90;;;;;;5034146;28;37132;-49
2022/06/06 05:56:22;;;;;;;;;;;15.10;99.90;;;;;;5020330;28;36111;-50
2022/06/06 05:58:56;;;;;;;;;;;15.10;99.90;;;;;;5034179;28;37773;-49
2022/06/06 06:01:33;;;;;;;;;;;15.10;99.90;;;;;;5033893;28;36606;-54
2022/06/06 06:04:15;;;;;;;;;;;15.10;99.90;;;;;;5018630;28;38342;-49
2022/06/06 06:06:48;;;;;;;;;;;15.10;99.90;;;;;;5017570;28;36446;-52
2022/06/06 06:09:19;;;;;;;;;;;15.10;99.90;;;;;;5032766;28;38441;-51
2022/06/06 06:11:56;;;;;;;;;;;15.00;99.90;;;;;;5033592;28;37892;-51
2022/06/06 06:14:29;;;;;;;;;;;15.00;99.90;;;;;;5033988;28;37354;-52
2022/06/06 06:16:59;;;;;;;;;;;15.00;99.90;;;;;;5033238;28;36354;-50
2022/06/06 06:19:28;;;;;;;;;;;15.00;99.90;;;;;;5033548;28;39284;-53
2022/06/06 06:21:57;;;;;;;;;;;15.00;99.90;;;;;;5033518;28;37869;-51
2022/06/06 06:24:26;;;;;;;;;;;15.10;99.90;;;;;;5033797;28;38129;-55
2022/06/06 06:26:55;;;;;;;;;;;15.00;99.90;;;;;;5033401;28;39006;-50
2022/06/06 06:29:22;;;;;;;;;;;15.00;99.90;;;;;;5033500;28;38512;-48
2022/06/06 06:32:00;;;;;;;;;;;15.00;99.90;;;;;;5033142;28;38168;-51
2022/06/06 06:34:36;;;;;;;;;;;14.90;99.90;;;;;;5033625;28;38629;-50
2022/06/06 06:37:14;;;;;;;;;;;15.00;99.90;;;;;;5033024;28;37831;-49
2022/06/06 06:39:49;;;;;;;;;;;15.00;99.90;;;;;;5033142;28;38690;-49
2022/06/06 06:42:25;;;;;;;;;;;15.00;99.90;;;;;;5033097;28;39340;-49
2022/06/06 06:44:55;;;;;;;;;;;15.00;99.90;;;;;;5033224;28;36904;-50
2022/06/06 06:47:26;;;;;;;;;;;15.00;99.90;;;;;;5032865;28;35606;-48
2022/06/06 06:49:56;;;;;;;;;;;15.00;99.90;;;;;;5031933;28;37605;-53
2022/06/06 06:52:36;;;;;;;;;;;15.00;99.90;;;;;;5032387;28;36579;-54
2022/06/06 06:55:09;;;;;;;;;;;15.10;99.90;;;;;;5032289;28;38308;-52
2022/06/06 06:57:48;;;;;;;;;;;15.00;99.90;;;;;;5033030;28;36286;-53
2022/06/06 07:00:16;;;;;;;;;;;15.10;99.90;;;;;;5032755;28;39539;-49
2022/06/06 07:08:33;;;;;;;;;;;15.10;99.90;;;;;;5032351;28;37410;-48
2022/06/06 07:11:05;;;;;;;;;;;15.10;99.90;;;;;;5032922;28;37832;-49
2022/06/06 07:13:37;;;;;;;;;;;15.20;99.90;;;;;;5032388;28;37726;-52
2022/06/06 07:16:09;;;;;;;;;;;15.20;99.90;;;;;;5032215;28;37325;-49
2022/06/06 07:18:38;;;;;;;;;;;15.20;99.90;;;;;;5032080;28;36024;-51
2022/06/06 07:21:07;;;;;;;;;;;15.20;99.90;;;;;;5032307;28;36413;-51
2022/06/06 07:23:39;;;;;;;;;;;15.20;99.90;;;;;;5032608;28;38493;-52
2022/06/06 07:26:07;;;;;;;;;;;15.20;99.90;;;;;;5031392;28;37999;-52
2022/06/06 07:28:34;;;;;;;;;;;15.20;99.90;;;;;;5031671;28;36464;-51
2022/06/06 07:31:04;;;;;;;;;;;15.20;99.90;;;;;;5031919;28;37705;-47
2022/06/06 07:33:40;;;;;;;;;;;15.30;99.90;;;;;;5031659;28;38688;-50
2022/06/06 07:36:12;;;;;;;;;;;15.30;99.90;;;;;;5031940;28;37488;-51
2022/06/06 07:38:49;;;;;;;;;;;15.40;99.90;;;;;;5031907;28;38012;-52
2022/06/06 07:41:27;;;;;;;;;;;15.40;99.90;;;;;;5031979;28;37909;-49
2022/06/06 07:44:02;;;;;;;;;;;15.40;99.90;;;;;;5032190;28;38475;-51
2022/06/06 07:46:38;;;;;;;;;;;15.30;99.90;;;;;;5032212;28;35995;-53
2022/06/06 07:49:06;;;;;;;;;;;15.30;99.90;;;;;;5031259;28;36230;-50
2022/06/06 07:51:39;;;;;;;;;;;15.20;99.90;;;;;;5031790;28;38235;-52
2022/06/06 07:54:15;;;;;;;;;;;15.20;99.90;;;;;;5031652;28;36052;-51
2022/06/06 07:56:48;;;;;;;;;;;15.30;99.90;;;;;;5031691;28;37897;-52
2022/06/06 07:59:19;;;;;;;;;;;15.40;99.90;;;;;;5031835;28;38180;-52
2022/06/06 08:01:52;;;;;;;;;;;15.40;99.90;;;;;;5031536;28;39011;-52
2022/06/06 08:04:24;;;;;;;;;;;15.50;99.90;;;;;;5031886;28;37975;-51
2022/06/06 08:06:57;;;;;;;;;;;15.60;99.90;;;;;;5031167;28;37811;-53
2022/06/06 08:09:36;;;;;;;;;;;15.70;99.90;;;;;;5031994;28;37414;-53
2022/06/06 08:12:08;;;;;;;;;;;15.80;99.90;;;;;;5031176;28;37885;-52
2022/06/06 08:14:46;;;;;;;;;;;16.00;99.90;;;;;;5030945;28;37742;-52
2022/06/06 08:17:18;;;;;;;;;;;16.10;99.90;;;;;;5031459;28;36284;-50
2022/06/06 08:19:51;;;;;;;;;;;16.10;99.90;;;;;;5031546;28;34975;-52
2022/06/06 08:22:18;;;;;;;;;;;16.10;99.90;;;;;;5034217;28;38356;-52
2022/06/06 08:24:48;;;;;;;;;;;16.00;99.90;;;;;;5035315;28;40112;-54
2022/06/06 08:27:18;;;;;;;;;;;16.00;99.90;;;;;;5034549;28;38171;-51
2022/06/06 08:29:46;;;;;;;;;;;16.00;99.90;;;;;;5035302;28;37463;-52
2022/06/06 08:32:13;;;;;;;;;;;16.00;99.90;;;;;;5034183;28;38625;-48
2022/06/06 08:34:40;;;;;;;;;;;16.10;99.90;;;;;;5035014;28;37302;-53
2022/06/06 08:37:37;;;;;;;;;;;16.30;99.90;;;;;;5026309;28;37445;-48
2022/06/06 08:40:38;;;;;;;;;;;16.50;99.90;;;;;;4947123;28;36228;-50
2022/06/06 08:43:11;;;;;;;;;;;16.60;99.90;;;;;;4968996;28;39222;-52
2022/06/06 08:45:48;;;;;;;;;;;16.70;99.90;;;;;;4968811;28;37639;-52
2022/06/06 08:48:17;;;;;;;;;;;16.70;99.90;;;;;;4996725;28;37763;-53
2022/06/06 08:50:59;;;;;;;;;;;16.60;99.90;;;;;;5024298;28;36977;-53
2022/06/06 08:53:46;;;;;;;;;;;16.60;99.90;;;;;;5031930;28;38278;-53
2022/06/06 08:56:21;;;;;;;;;;;16.50;99.90;;;;;;5030987;28;38858;-53
2022/06/06 08:59:04;;;;;;;;;;;16.40;99.90;;;;;;5030551;28;36085;-50
2022/06/06 09:01:37;;;;;;;;;;;16.30;99.90;;;;;;5032392;28;37197;-51
2022/06/06 09:04:17;;;;;;;;;;;16.20;99.90;;;;;;5031704;28;38095;-53
2022/06/06 09:07:14;;;;;;;;;;;16.10;99.90;;;;;;5030583;28;37805;-54
2022/06/06 09:10:00;;;;;;;;;;;15.90;99.90;;;;;;5031384;28;38487;-53
2022/06/06 09:12:48;;;;;;;;;;;15.90;99.90;;;;;;5031212;28;37454;-52
2022/06/06 09:15:34;;;;;;;;;;;15.80;99.90;;;;;;5027271;28;37889;-53
2022/06/06 09:18:19;;;;;;;;;;;15.80;99.90;;;;;;5035053;28;39540;-52
2022/06/06 09:21:06;;;;;;;;;;;15.80;99.90;;;;;;5034321;28;37060;-51
2022/06/06 09:23:47;;;;;;;;;;;15.80;99.90;;;;;;5027074;28;36105;-52
2022/06/06 09:26:23;;;;;;;;;;;15.90;99.90;;;;;;5034338;28;38641;-53
2022/06/06 09:29:24;;;;;;;;;;;16.10;99.90;;;;;;5033402;28;38000;-52
2022/06/06 09:32:09;;;;;;;;;;;16.20;99.90;;;;;;5033624;28;38482;-52
2022/06/06 09:34:57;;;;;;;;;;;16.40;99.90;;;;;;5034048;28;36805;-52
2022/06/06 09:37:34;;;;;;;;;;;16.50;99.90;;;;;;5033819;28;40049;-53
2022/06/06 09:40:15;;;;;;;;;;;16.70;99.90;;;;;;5034266;28;39657;-52
2022/06/06 09:42:54;;;;;;;;;;;16.90;99.90;;;;;;5034257;28;36696;-53
2022/06/06 09:45:29;;;;;;;;;;;17.20;99.90;;;;;;5034518;28;38245;-50
2022/06/06 09:48:08;;;;;;;;;;;17.40;99.90;;;;;;5033528;28;38018;-53
2022/06/06 09:50:53;;;;;;;;;;;17.70;99.90;;;;;;5034627;28;38022;-52
2022/06/06 09:53:41;;;;;;;;;;;17.80;99.90;;;;;;5034554;28;37407;-50
2022/06/06 09:59:34;;;;;;;;;;;17.90;99.90;;;;;;5034820;28;40037;-53
2022/06/06 10:02:34;;;;;;;;;;;18.20;99.90;;;;;;5033595;28;39187;-53
2022/06/06 10:05:20;;;;;;;;;;;18.40;99.90;;;;;;4952727;28;35800;-51
2022/06/06 10:08:03;;;;;;;;;;;18.60;99.90;;;;;;4952747;28;36580;-51
2022/06/06 10:10:43;;;;;;;;;;;18.80;99.90;;;;;;5006511;28;38216;-52
2022/06/06 10:13:23;;;;;;;;;;;18.90;99.90;;;;;;5034163;28;37865;-52
2022/06/06 10:16:00;;;;;;;;;;;19.00;99.90;;;;;;5032907;28;36940;-51
2022/06/06 10:18:49;;;;;;;;;;;19.10;99.90;;;;;;5033498;28;36927;-53
2022/06/06 10:21:41;;;;;;;;;;;19.20;99.90;;;;;;5032662;28;36322;-50
2022/06/06 10:24:18;;;;;;;;;;;19.30;99.90;;;;;;5033512;28;38803;-52
2022/06/06 10:27:03;;;;;;;;;;;19.40;99.90;;;;;;5033646;28;38101;-52
2022/06/06 10:32:33;;;;;;;;;;;19.00;99.90;;;;;;5033706;28;38682;-54
2022/06/06 10:35:15;;;;;;;;;;;19.00;99.90;;;;;;5033549;28;37650;-53
2022/06/06 10:37:59;;;;;;;;;;;19.10;99.90;;;;;;5033457;28;37257;-54
2022/06/06 10:40:31;;;;;;;;;;;19.30;99.90;;;;;;5033144;28;36243;-54
2022/06/06 10:43:07;;;;;;;;;;;19.30;99.90;;;;;;5031627;28;38814;-54
2022/06/06 10:45:38;;;;;;;;;;;19.20;99.90;;;;;;5033885;28;37071;-54
2022/06/06 10:48:11;;;;;;;;;;;19.20;99.90;;;;;;5033082;28;37070;-54
2022/06/06 10:53:44;;;;;;;;;;;19.40;99.90;;;;;;5031908;28;39301;-54
2022/06/06 10:56:20;;;;;;;;;;;19.60;99.90;;;;;;5032633;28;39398;-54
2022/06/06 10:58:59;;;;;;;;;;;19.80;99.60;;;;;;5032383;28;37369;-54
2022/06/06 11:01:53;;;;;;;;;;;19.60;97.90;;;;;;5033081;28;36350;-52
2022/06/06 11:04:44;;;;;;;;;;;19.50;98.70;;;;;;4993255;28;39112;-54
2022/06/06 11:07:38;;;;;;;;;;;19.40;99.00;;;;;;5024874;28;38204;-54
2022/06/06 11:10:13;;;;;;;;;;;19.40;98.70;;;;;;5032495;28;37528;-53
2022/06/06 11:12:50;;;;;;;;;;;19.30;98.90;;;;;;5033574;28;38364;-55
2022/06/06 11:15:18;;;;;;;;;;;19.20;99.90;;;;;;5031977;28;37830;-54
2022/06/06 11:18:02;;;;;;;;;;;19.20;97.80;;;;;;5032483;28;37661;-54
2022/06/06 11:20:50;;;;;;;;;;;19.20;98.90;;;;;;5032289;28;38226;-53
2022/06/06 11:23:20;;;;;;;;;;;19.30;98.70;;;;;;5003002;28;37783;-53
2022/06/06 11:25:53;;;;;;;;;;;19.30;97.80;;;;;;5030230;28;37923;-52
2022/06/06 11:28:29;;;;;;;;;;;19.20;96.70;;;;;;5032500;28;38631;-52
2022/06/06 11:31:15;;;;;;;;;;;19.10;96.10;;;;;;5032122;28;37043;-54
2022/06/06 11:34:00;;;;;;;;;;;18.90;96.60;;;;;;5031721;28;36379;-54
2022/06/06 11:36:45;;;;;;;;;;;18.90;98.50;;;;;;5032602;28;38569;-54
2022/06/06 11:39:26;;;;;;;;;;;18.80;99.60;;;;;;5031589;28;37666;-53
2022/06/06 11:42:04;;;;;;;;;;;18.80;99.70;;;;;;5032052;28;37924;-52
2022/06/06 11:44:46;;;;;;;;;;;18.90;98.50;;;;;;5032275;28;36345;-54
2022/06/06 11:47:32;;;;;;;;;;;18.90;99.30;;;;;;5023412;28;38954;-53
2022/06/06 11:50:10;;;;;;;;;;;18.80;97.00;;;;;;5031801;28;38949;-53
2022/06/06 11:53:01;;;;;;;;;;;18.70;96.60;;;;;;5032294;28;38076;-54
2022/06/06 11:55:37;;;;;;;;;;;18.60;96.80;;;;;;5035149;28;37031;-54
2022/06/06 11:58:37;;;;;;;;;;;18.40;98.10;;;;;;5034701;28;37992;-53
2022/06/06 12:01:14;;;;;;;;;;;18.30;99.90;;;;;;5035739;28;36884;-53
2022/06/06 12:03:56;;;;;;;;;;;18.20;99.80;;;;;;5035551;28;39420;-52
2022/06/06 12:06:47;;;;;;;;;;;18.20;98.90;;;;;;5031865;28;36928;-54
2022/06/06 12:09:20;;;;;;;;;;;18.00;99.50;;;;;;5011686;28;38742;-54
2022/06/06 12:12:11;;;;;;;;;;;17.90;99.90;;;;;;5031330;28;38020;-53
2022/06/06 12:14:59;;;;;;;;;;;17.80;99.90;;;;;;5032691;28;36613;-53
2022/06/06 12:17:35;;;;;;;;;;;17.80;99.90;;;;;;5032714;28;36043;-54
2022/06/06 12:20:11;;;;;;;;;;;17.80;99.90;;;;;;5032852;28;37631;-54
2022/06/06 12:22:50;;;;;;;;;;;17.80;99.90;;;;;;5032476;28;37835;-53
2022/06/06 12:25:37;;;;;;;;;;;17.90;99.90;;;;;;5031578;28;38410;-52
2022/06/06 12:28:25;;;;;;;;;;;17.90;99.90;;;;;;5005391;28;36701;-52
2022/06/06 12:31:03;;;;;;;;;;;17.90;99.90;;;;;;5019643;28;37514;-54
2022/06/06 12:33:35;;;;;;;;;;;17.90;99.90;;;;;;5032770;28;38047;-53
2022/06/06 12:36:03;;;;;;;;;;;17.70;99.90;;;;;;5031714;28;38656;-53
2022/06/06 12:38:44;;;;;;;;;;;17.40;99.90;;;;;;5031502;28;37586;-50
2022/06/06 12:41:18;;;;;;;;;;;17.10;99.90;;;;;;5031620;28;39090;-52
2022/06/06 12:43:52;;;;;;;;;;;16.90;99.90;;;;;;5031720;28;37047;-50
2022/06/06 12:46:27;;;;;;;;;;;16.70;99.90;;;;;;5031633;28;36001;-49
2022/06/06 12:49:11;;;;;;;;;;;16.60;99.90;;;;;;5031478;28;34940;-52
2022/06/06 12:51:49;;;;;;;;;;;16.40;99.90;;;;;;5030682;28;38535;-49
2022/06/06 12:54:29;;;;;;;;;;;16.40;99.90;;;;;;5031591;28;38772;-48
2022/06/06 12:56:57;;;;;;;;;;;16.30;99.90;;;;;;5031560;28;37228;-53
2022/06/06 12:59:31;;;;;;;;;;;16.20;99.90;;;;;;5031645;28;36168;-52
2022/06/06 13:02:00;;;;;;;;;;;16.20;99.90;;;;;;5032462;28;37345;-52
2022/06/06 13:04:35;;;;;;;;;;;16.10;99.90;;;;;;5032121;28;37753;-51
2022/06/06 13:07:11;;;;;;;;;;;16.10;99.90;;;;;;5030717;28;35399;-51
2022/06/06 13:09:56;;;;;;;;;;;16.00;99.90;;;;;;5031043;28;36029;-47
2022/06/06 13:12:32;;;;;;;;;;;15.90;99.90;;;;;;5031125;28;37337;-49
2022/06/06 13:15:05;;;;;;;;;;;15.90;99.90;;;;;;5030441;28;37803;-52
2022/06/06 13:17:37;;;;;;;;;;;15.80;99.90;;;;;;5030745;28;37014;-50
2022/06/06 13:20:09;;;;;;;;;;;15.80;99.90;;;;;;5032049;28;35127;-50
2022/06/06 13:22:45;;;;;;;;;;;15.90;99.90;;;;;;5030665;28;37985;-52
2022/06/06 13:25:17;;;;;;;;;;;16.00;99.90;;;;;;5031434;28;36914;-51
2022/06/06 13:27:56;;;;;;;;;;;16.10;99.90;;;;;;5031113;28;35922;-51
2022/06/06 13:30:24;;;;;;;;;;;16.10;99.90;;;;;;5031153;28;37763;-49
2022/06/06 13:32:57;;;;;;;;;;;16.10;99.90;;;;;;5031150;28;37830;-51
2022/06/06 13:35:27;;;;;;;;;;;16.10;99.90;;;;;;5031180;28;38732;-51
2022/06/06 13:38:03;;;;;;;;;;;16.10;99.90;;;;;;5031283;28;37862;-51
2022/06/06 13:40:37;;;;;;;;;;;16.10;99.90;;;;;;5030884;28;37184;-53
2022/06/06 13:43:28;;;;;;;;;;;16.00;99.90;;;;;;5031109;28;37725;-51
2022/06/06 13:46:05;;;;;;;;;;;16.00;99.90;;;;;;5030128;28;39406;-49
2022/06/06 13:48:39;;;;;;;;;;;15.90;99.90;;;;;;5030973;28;36175;-50
2022/06/06 13:51:09;;;;;;;;;;;15.90;99.90;;;;;;5030535;28;36114;-50
2022/06/06 13:53:44;;;;;;;;;;;15.90;99.90;;;;;;5031327;28;39473;-49
2022/06/06 13:56:17;;;;;;;;;;;15.80;99.90;;;;;;5030904;28;37804;-50
2022/06/06 13:58:50;;;;;;;;;;;15.80;99.90;;;;;;5031032;28;36988;-50
2022/06/06 14:01:27;;;;;;;;;;;15.70;99.90;;;;;;5030746;28;36392;-49
2022/06/06 14:04:00;;;;;;;;;;;15.70;99.90;;;;;;5031329;28;36522;-52
2022/06/06 14:06:35;;;;;;;;;;;15.70;99.90;;;;;;5030087;28;38358;-50
2022/06/06 14:09:04;;;;;;;;;;;15.70;99.90;;;;;;5030080;28;37558;-49
2022/06/06 14:11:41;;;;;;;;;;;15.70;99.90;;;;;;5032321;28;35793;-48
2022/06/06 14:14:09;;;;;;;;;;;15.70;99.90;;;;;;5032955;28;40018;-49
2022/06/06 14:16:38;;;;;;;;;;;15.60;99.90;;;;;;5033574;28;37808;-48
2022/06/06 14:19:07;;;;;;;;;;;15.60;99.90;;;;;;5032155;28;37193;-49
2022/06/06 14:21:37;;;;;;;;;;;15.60;99.90;;;;;;5033345;28;35194;-49
2022/06/06 14:24:10;;;;;;;;;;;15.50;99.90;;;;;;5033127;28;38528;-51
2022/06/06 14:26:37;;;;;;;;;;;15.50;99.90;;;;;;5033392;28;39046;-48
2022/06/06 14:29:06;;;;;;;;;;;15.50;99.90;;;;;;5033327;28;37595;-48
2022/06/06 14:31:35;;;;;;;;;;;15.40;99.90;;;;;;5032624;28;38485;-47
2022/06/06 14:34:03;;;;;;;;;;;15.50;99.90;;;;;;5032807;28;37537;-50
2022/06/06 14:36:30;;;;;;;;;;;15.50;99.90;;;;;;5032887;28;38902;-48
2022/06/06 14:38:59;;;;;;;;;;;15.40;99.90;;;;;;5033357;28;37342;-49
2022/06/06 14:41:29;;;;;;;;;;;15.30;99.90;;;;;;5032982;28;37094;-49
2022/06/06 14:43:58;;;;;;;;;;;15.30;99.90;;;;;;5032537;28;37569;-47
2022/06/06 14:46:25;;;;;;;;;;;15.30;99.90;;;;;;5033229;28;38893;-48
2022/06/06 14:48:54;;;;;;;;;;;15.20;99.90;;;;;;5032115;28;38146;-48
2022/06/06 14:51:23;;;;;;;;;;;15.30;99.90;;;;;;5032968;28;39840;-48
2022/06/06 14:53:51;;;;;;;;;;;15.20;99.90;;;;;;5032543;28;37729;-47
2022/06/06 14:56:28;;;;;;;;;;;15.20;99.90;;;;;;5032980;28;37672;-49
2022/06/06 14:58:58;;;;;;;;;;;15.20;99.90;;;;;;5032289;28;37120;-47
2022/06/06 15:01:26;;;;;;;;;;;15.20;99.90;;;;;;5032881;28;35972;-48
2022/06/06 15:03:55;;;;;;;;;;;15.20;99.90;;;;;;5032332;28;35246;-50
2022/06/06 15:06:23;;;;;;;;;;;15.20;99.90;;;;;;5032332;28;40710;-50
2022/06/06 15:08:54;;;;;;;;;;;15.20;99.90;;;;;;5032859;28;37262;-48
2022/06/06 15:11:24;;;;;;;;;;;15.10;99.90;;;;;;5032753;28;36304;-48
2022/06/06 15:13:53;;;;;;;;;;;15.10;99.90;;;;;;5032754;28;38656;-50
2022/06/06 15:16:22;;;;;;;;;;;15.10;99.90;;;;;;5031290;28;39470;-48
2022/06/06 15:18:52;;;;;;;;;;;15.10;99.90;;;;;;5032045;28;37805;-50